Time;durP1;ratioP1;P1;durP2;ratioP2;P2;SDS_P1;SDS_P2;PMS_P1;PMS_P2;Temp;Humidity;BMP_temperature;BMP_pressure;BME280_temperature;BME280_humidity;BME280_pressure;Samples;Min_cycle;Max_cycle;Signal;HPM_P1;HPM_P2
2022/09/28 00:00:31;;;;;;;10.15;6.78;;;11.00;99.90;;;;;;5036433;28;20477;-69
2022/09/28 00:02:57;;;;;;;9.88;7.50;;;10.90;99.90;;;;;;5043080;28;20017;-69
2022/09/28 00:05:25;;;;;;;10.80;7.43;;;10.90;99.90;;;;;;5043636;28;20036;-68
2022/09/28 00:07:55;;;;;;;11.02;6.90;;;10.90;99.90;;;;;;5048777;28;20025;-69
2022/09/28 00:10:21;;;;;;;11.45;7.40;;;10.80;99.90;;;;;;5018664;28;20111;-69
2022/09/28 00:12:51;;;;;;;11.05;7.10;;;10.80;99.90;;;;;;5044011;28;20025;-69
2022/09/28 00:15:17;;;;;;;11.77;7.38;;;10.80;99.90;;;;;;5034047;28;20033;-69
2022/09/28 00:17:43;;;;;;;8.68;7.00;;;10.90;99.90;;;;;;5035558;28;20122;-69
2022/09/28 00:20:11;;;;;;;12.90;7.18;;;10.80;99.90;;;;;;5049698;28;20049;-69
2022/09/28 00:22:37;;;;;;;10.38;7.07;;;10.80;99.90;;;;;;5045794;28;20025;-69
2022/09/28 00:25:04;;;;;;;8.35;6.72;;;10.80;99.90;;;;;;5040384;28;20025;-69
2022/09/28 00:27:30;;;;;;;9.15;7.30;;;10.80;99.90;;;;;;5038121;28;20026;-69
2022/09/28 00:29:55;;;;;;;9.18;6.93;;;10.80;99.90;;;;;;5048268;28;20025;-69
2022/09/28 00:32:23;;;;;;;10.15;6.85;;;10.80;99.90;;;;;;5034228;28;20032;-69
2022/09/28 00:34:50;;;;;;;9.93;7.00;;;10.80;99.90;;;;;;5039526;28;20028;-69
2022/09/28 00:37:20;;;;;;;11.70;6.70;;;10.80;99.90;;;;;;5043945;28;20384;-69
2022/09/28 00:39:47;;;;;;;10.15;7.68;;;10.90;99.90;;;;;;5035807;28;20104;-69
2022/09/28 00:42:16;;;;;;;13.90;7.13;;;10.90;99.90;;;;;;5047987;28;20032;-69
2022/09/28 00:44:53;;;;;;;13.30;7.07;;;10.90;99.90;;;;;;5039788;28;20047;-69
2022/09/28 00:47:18;;;;;;;11.15;7.32;;;10.90;99.90;;;;;;5037491;28;20036;-69
2022/09/28 00:49:47;;;;;;;10.82;7.05;;;11.00;99.90;;;;;;5029582;28;20112;-69
2022/09/28 00:52:18;;;;;;;8.75;6.95;;;10.90;99.90;;;;;;5034591;28;20033;-69
2022/09/28 00:54:45;;;;;;;12.77;8.35;;;10.90;99.90;;;;;;5033883;28;20018;-69
2022/09/28 00:57:12;;;;;;;10.60;9.05;;;11.00;99.90;;;;;;5035574;28;20095;-71
2022/09/28 00:59:39;;;;;;;10.85;8.55;;;10.90;99.90;;;;;;5035911;28;20018;-71
2022/09/28 01:02:05;;;;;;;14.30;8.65;;;11.00;99.90;;;;;;5035243;28;20108;-69
2022/09/28 01:04:30;;;;;;;11.38;8.70;;;10.90;99.90;;;;;;5035634;28;20104;-69
2022/09/28 01:06:57;;;;;;;14.20;9.90;;;11.00;99.90;;;;;;5034714;28;20037;-69
2022/09/28 01:09:26;;;;;;;16.20;8.85;;;11.00;99.90;;;;;;5033621;28;20504;-69
2022/09/28 01:11:51;;;;;;;18.33;10.60;;;10.90;99.90;;;;;;5034011;28;20450;-69
2022/09/28 01:14:18;;;;;;;14.57;10.48;;;11.00;99.90;;;;;;5035125;28;20112;-69
2022/09/28 01:17:02;;;;;;;15.95;11.10;;;11.00;99.90;;;;;;5035055;28;20544;-69
2022/09/28 01:19:47;;;;;;;17.85;10.95;;;11.00;99.90;;;;;;5035278;28;20044;-69
2022/09/28 01:22:50;;;;;;;20.42;11.95;;;11.00;99.90;;;;;;5033793;28;20017;-69
2022/09/28 01:25:41;;;;;;;18.38;12.50;;;11.10;99.90;;;;;;5030335;28;20029;-69
2022/09/28 01:28:15;;;;;;;18.35;11.57;;;11.10;99.90;;;;;;5033711;28;20025;-69
2022/09/28 01:31:07;;;;;;;21.23;12.38;;;11.10;99.90;;;;;;5032110;28;20057;-69
2022/09/28 01:33:44;;;;;;;21.75;13.88;;;11.00;99.90;;;;;;5034013;28;20021;-69
2022/09/28 01:36:20;;;;;;;21.08;14.15;;;11.10;99.90;;;;;;5033319;28;20473;-69
2022/09/28 01:38:50;;;;;;;19.85;12.50;;;11.10;99.90;;;;;;5032663;28;20017;-69
2022/09/28 01:41:17;;;;;;;27.42;15.23;;;11.00;99.90;;;;;;5034065;28;20489;-70
2022/09/28 01:43:54;;;;;;;20.95;13.38;;;11.00;99.90;;;;;;5034303;28;20100;-69
2022/09/28 01:46:33;;;;;;;20.75;15.07;;;11.00;99.90;;;;;;5033590;28;20041;-69
2022/09/28 01:49:09;;;;;;;22.52;14.35;;;11.00;99.90;;;;;;5034674;28;20029;-69
2022/09/28 01:51:41;;;;;;;20.33;15.20;;;11.00;99.90;;;;;;5031291;28;20033;-69
2022/09/28 01:54:13;;;;;;;23.75;15.25;;;11.00;99.90;;;;;;5033047;28;20026;-70
2022/09/28 01:56:57;;;;;;;27.65;17.10;;;11.00;99.90;;;;;;5034194;28;20021;-69
2022/09/28 01:59:27;;;;;;;22.80;16.38;;;11.00;99.90;;;;;;5031670;28;20028;-69
2022/09/28 02:02:02;;;;;;;21.08;15.30;;;11.00;99.90;;;;;;5034728;28;20026;-69
2022/09/28 02:04:52;;;;;;;21.02;14.98;;;11.00;99.90;;;;;;5032409;28;20037;-69
2022/09/28 02:07:37;;;;;;;19.95;15.07;;;11.00;99.90;;;;;;5034129;28;20017;-69
2022/09/28 02:10:09;;;;;;;20.42;14.23;;;10.90;99.90;;;;;;5033335;28;20026;-69
2022/09/28 02:13:17;;;;;;;19.52;14.25;;;10.90;99.90;;;;;;5032644;28;20021;-69
2022/09/28 02:15:51;;;;;;;18.90;14.45;;;10.90;99.90;;;;;;5032180;28;20128;-69
2022/09/28 02:18:17;;;;;;;24.92;15.40;;;10.90;99.90;;;;;;5029955;28;20096;-70
2022/09/28 02:21:04;;;;;;;24.00;14.65;;;10.90;99.90;;;;;;5024971;28;20140;-70
2022/09/28 02:23:32;;;;;;;19.08;13.57;;;11.00;99.90;;;;;;5032957;28;20635;-70
2022/09/28 02:26:04;;;;;;;16.80;12.82;;;11.00;99.90;;;;;;5031718;28;20029;-70
2022/09/28 02:28:29;;;;;;;16.85;12.40;;;11.00;99.90;;;;;;5035214;28;20071;-71
2022/09/28 02:30:55;;;;;;;18.98;11.63;;;11.00;99.90;;;;;;5033989;28;20026;-70
2022/09/28 02:33:30;;;;;;;18.52;11.70;;;11.00;99.90;;;;;;5032572;28;20021;-70
2022/09/28 02:35:57;;;;;;;18.95;11.52;;;11.00;99.90;;;;;;5032345;28;20037;-70
2022/09/28 02:38:23;;;;;;;17.40;12.35;;;11.00;99.90;;;;;;5034242;28;20025;-70
2022/09/28 02:41:02;;;;;;;20.45;11.55;;;11.00;99.90;;;;;;5033426;28;20018;-70
2022/09/28 02:43:51;;;;;;;18.15;12.07;;;11.10;99.90;;;;;;5031070;28;20428;-70
2022/09/28 02:46:31;;;;;;;18.27;11.35;;;11.00;99.90;;;;;;5031950;28;20102;-71
2022/09/28 02:49:03;;;;;;;16.00;11.30;;;11.10;99.90;;;;;;5031348;28;20037;-71
2022/09/28 02:51:57;;;;;;;15.98;12.45;;;11.10;99.90;;;;;;5033410;28;20502;-70
2022/09/28 02:54:36;;;;;;;13.05;9.98;;;11.10;99.90;;;;;;5034374;28;20029;-71
2022/09/28 02:57:04;;;;;;;18.05;10.65;;;11.10;99.90;;;;;;5033238;28;20501;-71
2022/09/28 02:59:39;;;;;;;14.23;10.40;;;11.10;99.90;;;;;;5032764;28;20057;-70
2022/09/28 03:03:06;;;;;;;15.98;9.77;;;11.00;99.90;;;;;;5033516;28;20032;-70
2022/09/28 03:05:50;;;;;;;19.42;9.48;;;10.90;99.90;;;;;;4998352;28;20033;-70
2022/09/28 03:08:26;;;;;;;16.88;10.07;;;11.00;99.90;;;;;;5033903;28;20025;-70
2022/09/28 03:10:59;;;;;;;16.67;10.50;;;10.90;99.90;;;;;;5026134;28;20045;-70
2022/09/28 03:13:27;;;;;;;18.50;11.00;;;10.90;99.90;;;;;;5032601;28;20021;-70
2022/09/28 03:16:16;;;;;;;14.65;10.02;;;10.80;99.90;;;;;;5033467;28;20486;-70
2022/09/28 03:18:41;;;;;;;17.15;10.13;;;10.80;99.90;;;;;;5032162;28;20030;-71
2022/09/28 03:21:10;;;;;;;14.38;9.52;;;10.80;99.90;;;;;;5033209;28;20033;-70
2022/09/28 03:23:36;;;;;;;11.23;8.52;;;10.80;99.90;;;;;;5051242;28;20031;-70
2022/09/28 03:26:01;;;;;;;11.90;9.38;;;10.80;99.90;;;;;;5052016;28;20029;-70
2022/09/28 03:28:28;;;;;;;17.23;9.93;;;10.80;99.90;;;;;;5037164;28;20025;-70
2022/09/28 03:30:54;;;;;;;17.38;11.60;;;10.80;99.90;;;;;;5032831;28;20025;-70
2022/09/28 03:33:20;;;;;;;15.10;10.43;;;10.80;99.90;;;;;;5033016;28;20029;-70
2022/09/28 03:35:47;;;;;;;18.23;11.13;;;10.80;99.90;;;;;;5033209;28;20030;-70
2022/09/28 03:38:13;;;;;;;16.08;10.98;;;10.90;99.90;;;;;;5033590;28;20029;-70
2022/09/28 03:40:39;;;;;;;13.80;10.80;;;10.80;99.90;;;;;;5032757;28;20017;-70
2022/09/28 03:43:04;;;;;;;19.58;11.57;;;10.90;99.90;;;;;;5033156;28;20025;-70
2022/09/28 03:45:30;;;;;;;16.58;10.98;;;10.90;99.90;;;;;;5032360;28;20045;-70
2022/09/28 03:47:56;;;;;;;17.33;11.63;;;10.90;99.90;;;;;;5021636;28;20026;-70
2022/09/28 03:50:22;;;;;;;17.48;11.00;;;10.90;99.90;;;;;;5013414;28;20454;-70
2022/09/28 03:52:47;;;;;;;20.67;12.45;;;10.90;99.90;;;;;;5012148;28;20309;-70
2022/09/28 03:55:13;;;;;;;17.70;11.68;;;10.90;99.90;;;;;;5012959;28;20029;-70
2022/09/28 03:57:39;;;;;;;16.48;11.93;;;10.90;99.90;;;;;;5021174;28;20026;-70
2022/09/28 04:00:05;;;;;;;17.17;12.00;;;11.00;99.90;;;;;;5032770;28;20025;-70
2022/09/28 04:02:32;;;;;;;16.88;11.60;;;11.00;99.90;;;;;;5031790;28;20033;-70
2022/09/28 04:04:57;;;;;;;21.08;12.20;;;10.90;99.90;;;;;;5032434;28;20045;-70
2022/09/28 04:07:23;;;;;;;17.08;10.82;;;11.00;99.90;;;;;;5032263;28;20111;-70
2022/09/28 04:09:48;;;;;;;14.90;11.43;;;10.90;99.90;;;;;;5030297;28;20029;-70
2022/09/28 04:12:14;;;;;;;15.18;9.38;;;10.90;99.90;;;;;;5031664;28;20104;-70
2022/09/28 04:14:39;;;;;;;17.23;10.00;;;10.90;99.90;;;;;;5032487;28;20033;-70
2022/09/28 04:17:06;;;;;;;13.85;9.75;;;10.90;99.90;;;;;;5032433;28;20037;-70
2022/09/28 04:19:31;;;;;;;12.35;8.88;;;10.90;99.90;;;;;;5030886;28;20029;-70
2022/09/28 04:21:57;;;;;;;11.02;7.68;;;10.90;99.90;;;;;;5031685;28;20383;-70
2022/09/28 04:24:23;;;;;;;12.02;8.80;;;10.80;99.90;;;;;;5029335;28;20017;-70
2022/09/28 04:26:48;;;;;;;11.68;8.13;;;10.80;99.90;;;;;;5032069;28;20111;-70
2022/09/28 04:29:17;;;;;;;12.70;7.68;;;10.80;99.90;;;;;;5030011;28;20025;-70
2022/09/28 04:31:46;;;;;;;10.57;7.22;;;10.80;99.90;;;;;;5032600;28;20022;-70
2022/09/28 04:34:21;;;;;;;13.85;8.73;;;10.80;99.90;;;;;;5031701;28;20450;-70
2022/09/28 04:36:48;;;;;;;12.60;7.97;;;10.80;99.90;;;;;;5030032;28;20033;-70
2022/09/28 04:39:15;;;;;;;13.55;7.53;;;10.80;99.90;;;;;;5032142;28;20032;-70
2022/09/28 04:41:41;;;;;;;9.15;7.75;;;10.80;99.90;;;;;;5031219;28;20406;-70
2022/09/28 04:44:07;;;;;;;14.07;8.77;;;10.70;99.90;;;;;;5031877;28;20030;-70
2022/09/28 04:46:34;;;;;;;13.35;8.90;;;10.80;99.90;;;;;;5030929;28;20466;-70
2022/09/28 04:49:00;;;;;;;13.88;8.70;;;10.80;99.90;;;;;;5032334;28;20029;-70
2022/09/28 04:51:25;;;;;;;10.63;8.40;;;10.80;99.90;;;;;;5031939;28;20026;-70
2022/09/28 04:53:51;;;;;;;13.38;9.40;;;10.70;99.90;;;;;;5032120;28;20021;-70
2022/09/28 04:56:18;;;;;;;15.93;8.75;;;10.70;99.90;;;;;;5031724;28;20040;-70
2022/09/28 04:58:44;;;;;;;17.45;9.90;;;10.80;99.90;;;;;;5031447;28;20087;-70
2022/09/28 05:01:22;;;;;;;20.35;10.18;;;10.70;99.90;;;;;;5031909;28;20409;-70
2022/09/28 05:03:48;;;;;;;17.02;10.48;;;10.70;99.90;;;;;;5032166;28;20049;-70
2022/09/28 05:06:14;;;;;;;17.50;11.95;;;10.70;99.90;;;;;;5030447;28;20115;-70
2022/09/28 05:08:41;;;;;;;15.25;11.40;;;10.70;99.90;;;;;;5031361;28;20028;-70
2022/09/28 05:11:10;;;;;;;17.38;12.27;;;10.70;99.90;;;;;;5031791;28;20025;-70
2022/09/28 05:13:42;;;;;;;16.05;12.02;;;10.60;99.90;;;;;;5030932;28;20029;-72
2022/09/28 05:16:08;;;;;;;16.42;12.25;;;10.60;99.90;;;;;;5032052;28;20040;-70
2022/09/28 05:18:34;;;;;;;39.80;31.88;;;10.60;99.90;;;;;;5030836;28;20030;-70
2022/09/28 05:21:00;;;;;;;19.90;13.35;;;10.60;99.90;;;;;;5032046;28;20017;-70
2022/09/28 05:23:26;;;;;;;21.42;14.88;;;10.50;99.90;;;;;;5011316;28;20104;-70
2022/09/28 05:25:52;;;;;;;23.80;15.75;;;10.40;99.90;;;;;;5027602;28;20030;-70
2022/09/28 05:28:25;;;;;;;25.33;15.27;;;10.50;99.90;;;;;;5029785;28;20041;-70
2022/09/28 05:30:51;;;;;;;26.30;15.65;;;10.50;99.90;;;;;;5030685;28;20033;-70
2022/09/28 05:33:16;;;;;;;20.60;15.85;;;10.50;99.90;;;;;;5031610;28;20444;-70
2022/09/28 05:35:42;;;;;;;22.10;15.05;;;10.50;99.90;;;;;;5034855;28;20040;-70
2022/09/28 05:38:07;;;;;;;28.08;15.90;;;10.50;99.90;;;;;;5035893;28;20029;-70
2022/09/28 05:40:33;;;;;;;21.73;16.33;;;10.50;99.90;;;;;;5035047;28;20029;-70
2022/09/28 05:43:00;;;;;;;24.70;16.55;;;10.50;99.90;;;;;;5035204;28;20466;-70
2022/09/28 05:45:27;;;;;;;27.17;17.52;;;10.40;99.90;;;;;;5034379;28;20029;-70
2022/09/28 05:47:52;;;;;;;31.75;17.35;;;10.40;99.90;;;;;;5032654;28;20500;-70
2022/09/28 05:50:18;;;;;;;24.55;17.00;;;10.40;99.90;;;;;;5026389;28;20037;-70
2022/09/28 05:52:43;;;;;;;26.20;17.40;;;10.50;99.90;;;;;;5026886;28;20053;-70
2022/09/28 05:55:10;;;;;;;28.08;18.35;;;10.50;99.90;;;;;;5035286;28;20191;-70
2022/09/28 05:57:35;;;;;;;25.52;16.80;;;10.50;99.90;;;;;;5033801;28;20044;-70
2022/09/28 06:00:03;;;;;;;29.73;17.17;;;10.60;99.90;;;;;;5033514;28;20025;-71
2022/09/28 06:02:28;;;;;;;28.27;17.33;;;10.50;99.90;;;;;;5034210;28;20029;-70
2022/09/28 06:04:54;;;;;;;27.25;17.10;;;10.50;99.90;;;;;;5034737;28;20021;-70
2022/09/28 06:07:21;;;;;;;26.63;16.95;;;10.50;99.90;;;;;;5034779;28;20040;-70
2022/09/28 06:09:47;;;;;;;26.17;15.40;;;10.50;99.90;;;;;;5033992;28;20199;-70
2022/09/28 06:12:14;;;;;;;25.27;14.60;;;10.50;99.90;;;;;;5034880;28;20030;-70
2022/09/28 06:14:40;;;;;;;24.67;15.07;;;10.60;99.90;;;;;;5028218;28;20025;-70
2022/09/28 06:17:06;;;;;;;20.83;14.15;;;10.60;99.90;;;;;;5033674;28;20040;-70
2022/09/28 06:19:31;;;;;;;26.45;14.48;;;10.50;99.90;;;;;;5029728;28;20056;-70
2022/09/28 06:21:57;;;;;;;21.90;14.55;;;10.60;99.90;;;;;;5014002;28;20049;-70
2022/09/28 06:24:23;;;;;;;27.13;13.95;;;10.60;99.90;;;;;;5012880;28;20024;-70
2022/09/28 06:26:49;;;;;;;28.55;16.08;;;10.60;99.90;;;;;;5015277;28;20022;-70
2022/09/28 06:29:18;;;;;;;22.05;14.15;;;10.60;99.90;;;;;;5034094;28;20034;-70
2022/09/28 06:31:44;;;;;;;30.45;15.13;;;10.60;99.90;;;;;;5034332;28;20078;-70
2022/09/28 06:34:11;;;;;;;23.23;15.20;;;10.60;99.90;;;;;;5034778;28;20474;-70
2022/09/28 06:36:37;;;;;;;21.90;14.45;;;10.60;99.90;;;;;;5034635;28;20398;-70
2022/09/28 06:39:03;;;;;;;27.10;16.55;;;10.60;99.90;;;;;;5034466;28;20033;-70
2022/09/28 06:41:29;;;;;;;21.23;14.40;;;10.50;99.90;;;;;;5033907;28;20037;-70
2022/09/28 06:43:55;;;;;;;24.00;14.80;;;10.60;99.90;;;;;;5034109;28;20029;-70
2022/09/28 06:46:21;;;;;;;19.73;14.20;;;10.60;99.90;;;;;;5032713;28;20517;-70
2022/09/28 06:48:46;;;;;;;21.20;14.45;;;10.50;99.90;;;;;;5033954;28;20025;-70
2022/09/28 06:51:12;;;;;;;22.02;13.15;;;10.50;99.90;;;;;;5034095;28;20605;-70
2022/09/28 06:53:38;;;;;;;19.30;14.00;;;10.50;99.90;;;;;;5032408;28;20438;-70
2022/09/28 06:56:05;;;;;;;25.17;15.60;;;10.50;99.90;;;;;;5033477;28;20112;-70
2022/09/28 06:58:31;;;;;;;21.23;13.60;;;10.50;99.90;;;;;;5033863;28;20112;-70
2022/09/28 07:01:00;;;;;;;21.40;12.80;;;10.50;99.90;;;;;;5033815;28;20421;-70
2022/09/28 07:03:26;;;;;;;20.45;13.90;;;10.50;99.90;;;;;;5033994;28;20030;-70
2022/09/28 07:05:53;;;;;;;21.38;12.93;;;10.50;99.90;;;;;;5033799;28;20026;-70
2022/09/28 07:08:23;;;;;;;21.13;13.52;;;10.60;99.90;;;;;;5033977;28;20025;-70
2022/09/28 07:10:54;;;;;;;20.58;13.18;;;10.60;99.90;;;;;;5033222;28;20378;-71
2022/09/28 07:13:22;;;;;;;19.92;11.57;;;10.60;99.90;;;;;;5032635;28;20026;-70
2022/09/28 07:15:47;;;;;;;20.45;10.07;;;10.60;99.90;;;;;;5031438;28;20077;-73
2022/09/28 07:18:13;;;;;;;14.20;8.80;;;10.60;99.90;;;;;;5032693;28;20061;-73
2022/09/28 07:20:39;;;;;;;19.52;11.90;;;10.60;99.90;;;;;;5032878;28;20036;-71
2022/09/28 07:23:06;;;;;;;17.75;11.55;;;10.60;99.90;;;;;;5033466;28;20017;-71
2022/09/28 07:25:36;;;;;;;18.45;10.73;;;10.60;99.90;;;;;;5032911;28;20032;-71
2022/09/28 07:28:03;;;;;;;19.38;11.82;;;10.60;99.90;;;;;;5032934;28;20110;-70
2022/09/28 07:30:32;;;;;;;16.52;11.48;;;10.70;99.90;;;;;;5030415;28;20037;-70
2022/09/28 07:32:59;;;;;;;15.38;10.52;;;10.70;99.90;;;;;;5031109;28;20021;-70
2022/09/28 07:35:24;;;;;;;18.38;12.18;;;10.70;99.90;;;;;;5033297;28;20044;-70
2022/09/28 07:37:59;;;;;;;24.15;12.05;;;10.70;99.90;;;;;;5033054;28;20022;-70
2022/09/28 07:43:11;;;;;;;20.17;13.10;;;10.80;99.90;;;;;;5022323;28;20545;-71
2022/09/28 07:45:37;;;;;;;16.77;10.48;;;10.80;99.90;;;;;;5030552;28;20514;-70
2022/09/28 07:48:03;;;;;;;15.93;10.77;;;10.90;99.90;;;;;;5031922;28;20104;-70
2022/09/28 07:50:30;;;;;;;17.33;11.00;;;11.00;99.90;;;;;;5029911;28;20075;-70
2022/09/28 07:52:57;;;;;;;16.00;9.82;;;11.10;99.90;;;;;;5032051;28;20033;-69
2022/09/28 07:55:23;;;;;;;14.85;10.02;;;11.10;99.90;;;;;;5032355;28;20041;-70
2022/09/28 07:57:59;;;;;;;16.98;10.00;;;11.10;99.90;;;;;;5031957;28;20474;-70
2022/09/28 08:00:26;;;;;;;17.52;10.25;;;11.10;99.90;;;;;;5032350;28;20091;-71
2022/09/28 08:02:51;;;;;;;12.30;9.00;;;11.20;99.90;;;;;;5031843;28;20541;-70
2022/09/28 08:05:17;;;;;;;16.48;9.82;;;11.20;99.90;;;;;;5032365;28;20044;-70
2022/09/28 08:07:43;;;;;;;15.75;8.95;;;11.30;99.90;;;;;;5030502;28;20538;-70
2022/09/28 08:10:10;;;;;;;37.95;9.57;;;11.30;99.90;;;;;;5032581;28;20030;-70
2022/09/28 08:12:39;;;;;;;12.32;7.28;;;11.30;99.90;;;;;;5029630;28;20021;-70
2022/09/28 08:15:10;;;;;;;13.90;6.60;;;11.40;99.90;;;;;;5025987;28;20062;-69
2022/09/28 08:17:36;;;;;;;11.88;6.00;;;11.50;99.90;;;;;;5031592;28;20025;-70
2022/09/28 08:22:46;;;;;;;8.23;4.63;;;11.60;99.90;;;;;;5031700;28;20432;-70
2022/09/28 08:25:12;;;;;;;11.10;5.70;;;11.60;99.90;;;;;;5031642;28;20018;-70
2022/09/28 08:27:37;;;;;;;5.85;4.85;;;11.60;99.90;;;;;;5031979;28;20386;-70
2022/09/28 08:30:03;;;;;;;9.77;5.30;;;11.70;99.90;;;;;;5031865;28;20052;-69
2022/09/28 08:32:29;;;;;;;9.43;5.50;;;11.70;99.90;;;;;;5032022;28;20034;-70
2022/09/28 08:34:55;;;;;;;9.23;4.78;;;11.80;99.90;;;;;;5031817;28;20029;-70
2022/09/28 08:37:21;;;;;;;6.00;4.15;;;11.90;99.90;;;;;;5031967;28;20505;-70
2022/09/28 08:39:46;;;;;;;11.38;4.70;;;11.90;99.90;;;;;;5030797;28;20026;-70
2022/09/28 08:42:33;;;;;;;6.88;4.05;;;11.90;99.90;;;;;;5025352;28;20034;-70
2022/09/28 08:45:06;;;;;;;22.27;5.15;;;11.80;99.90;;;;;;5016719;28;20033;-69
2022/09/28 08:50:32;;;;;;;9.95;4.00;;;12.00;99.90;;;;;;5017686;28;20192;-69
2022/09/28 08:53:06;;;;;;;9.20;3.55;;;12.10;99.90;;;;;;5030855;28;20021;-70
2022/09/28 08:55:35;;;;;;;4.97;3.17;;;12.20;99.90;;;;;;5031196;28;20032;-70
2022/09/28 08:58:15;;;;;;;6.68;3.33;;;12.20;99.90;;;;;;5031427;28;20079;-69
2022/09/28 09:00:48;;;;;;;6.28;3.10;;;12.20;99.90;;;;;;5031080;28;20044;-70
2022/09/28 09:03:40;;;;;;;14.00;3.92;;;12.40;99.90;;;;;;5031511;28;20026;-70
2022/09/28 09:06:21;;;;;;;4.95;2.42;;;12.30;99.90;;;;;;5031227;28;20013;-70
2022/09/28 09:08:59;;;;;;;7.53;3.08;;;12.40;99.90;;;;;;5032646;28;20108;-69
2022/09/28 09:11:34;;;;;;;5.47;2.60;;;12.40;99.90;;;;;;5035848;28;20474;-69
2022/09/28 09:14:34;;;;;;;5.43;3.45;;;12.60;99.90;;;;;;5034738;28;20524;-69
2022/09/28 09:17:25;;;;;;;3.80;2.75;;;12.80;99.90;;;;;;5034259;28;20087;-69
2022/09/28 09:20:00;;;;;;;5.57;2.28;;;12.90;99.90;;;;;;5035659;28;20084;-69
2022/09/28 09:22:33;;;;;;;7.75;2.75;;;13.10;99.90;;;;;;5034342;28;20031;-70
2022/09/28 09:24:59;;;;;;;7.40;2.58;;;13.20;99.90;;;;;;5034487;28;20083;-70
2022/09/28 09:27:31;;;;;;;4.53;1.67;;;13.30;99.90;;;;;;5035808;28;20025;-70
2022/09/28 09:30:00;;;;;;;8.60;1.95;;;13.40;99.90;;;;;;5035031;28;20485;-69
2022/09/28 09:32:52;;;;;;;5.38;1.70;;;13.50;99.90;;;;;;5035134;28;20041;-69
2022/09/28 09:35:21;;;;;;;3.57;1.40;;;13.60;99.90;;;;;;5035306;28;20057;-69
2022/09/28 09:38:05;;;;;;;4.63;1.85;;;13.70;99.90;;;;;;5034243;28;20061;-69
2022/09/28 09:40:43;;;;;;;3.53;2.08;;;13.80;99.90;;;;;;5035129;28;20030;-70
2022/09/28 09:43:33;;;;;;;15.52;2.42;;;13.80;99.90;;;;;;5027913;28;20034;-70
2022/09/28 09:46:13;;;;;;;13.80;2.30;;;13.90;99.90;;;;;;5034908;28;20502;-70
2022/09/28 09:49:12;;;;;;;6.43;1.67;;;14.00;99.90;;;;;;5034402;28;20488;-70
2022/09/28 09:52:02;;;;;;;113.55;7.70;;;14.20;99.90;;;;;;5034790;28;20048;-70
2022/09/28 09:54:36;;;;;;;4.00;1.92;;;14.50;99.90;;;;;;5033370;28;20498;-70
2022/09/28 09:57:12;;;;;;;32.08;3.35;;;14.60;99.90;;;;;;5034863;28;20033;-70
2022/09/28 09:59:40;;;;;;;8.52;1.67;;;14.80;99.90;;;;;;5035316;28;20049;-70
2022/09/28 10:02:31;;;;;;;4.82;1.73;;;15.00;99.90;;;;;;5035268;28;20017;-71
2022/09/28 10:05:09;;;;;;;5.05;1.20;;;15.10;99.90;;;;;;5034205;28;20379;-71
2022/09/28 10:07:57;;;;;;;4.68;1.42;;;15.00;99.90;;;;;;5034595;28;20036;-70
2022/09/28 10:10:29;;;;;;;3.03;1.20;;;14.90;99.90;;;;;;5034837;28;20033;-70
2022/09/28 10:12:55;;;;;;;2.92;0.98;;;14.90;99.90;;;;;;5034884;28;20029;-70
2022/09/28 10:15:29;;;;;;;2.08;1.20;;;14.90;99.90;;;;;;5033938;28;20034;-71
2022/09/28 10:17:58;;;;;;;4.28;1.10;;;15.10;99.90;;;;;;5027882;28;20501;-70
2022/09/28 10:20:33;;;;;;;4.88;1.33;;;15.10;99.90;;;;;;5005620;28;20015;-73
2022/09/28 10:23:02;;;;;;;5.10;1.45;;;15.30;99.90;;;;;;5026339;28;20073;-71
2022/09/28 10:25:32;;;;;;;2.67;0.98;;;15.40;99.90;;;;;;5039519;28;20108;-71
2022/09/28 10:27:59;;;;;;;6.35;1.48;;;15.50;99.90;;;;;;5046825;28;20363;-71
2022/09/28 10:30:25;;;;;;;3.97;1.00;;;15.50;99.90;;;;;;5043798;28;20104;-71
2022/09/28 10:32:57;;;;;;;2.75;1.25;;;15.80;99.90;;;;;;5038837;28;20037;-71
2022/09/28 10:35:30;;;;;;;29.95;2.33;;;15.60;99.90;;;;;;5050197;28;20492;-71
2022/09/28 10:38:10;;;;;;;34.45;3.33;;;15.80;99.90;;;;;;5032134;28;20046;-71
2022/09/28 10:40:46;;;;;;;32.33;3.08;;;16.10;99.90;;;;;;5044854;28;20025;-71
2022/09/28 10:43:22;;;;;;;27.95;2.83;;;16.00;99.90;;;;;;5035467;28;20470;-72
2022/09/28 10:45:59;;;;;;;2.40;0.98;;;16.00;99.90;;;;;;5035808;28;20100;-71
2022/09/28 10:48:26;;;;;;;2.53;0.88;;;16.10;99.90;;;;;;5031696;28;20014;-72
2022/09/28 10:51:19;;;;;;;29.52;2.42;;;16.00;99.90;;;;;;5029459;28;20163;-72
2022/09/28 10:54:01;;;;;;;7.90;1.00;;;15.90;99.90;;;;;;5024188;28;20053;-71
2022/09/28 10:56:34;;;;;;;7.38;1.27;;;15.80;99.90;;;;;;5028184;28;20110;-72
2022/09/28 10:59:00;;;;;;;4.32;1.23;;;15.80;99.90;;;;;;5027986;28;20072;-71
2022/09/28 11:01:31;;;;;;;6.57;1.13;;;15.80;99.90;;;;;;5029692;28;20042;-72
2022/09/28 11:03:57;;;;;;;2.50;1.45;;;15.80;99.90;;;;;;5028283;28;22199;-72
2022/09/28 11:06:26;;;;;;;2.45;1.10;;;16.10;99.90;;;;;;5022568;28;20057;-72
2022/09/28 11:08:53;;;;;;;1.67;1.00;;;16.30;99.90;;;;;;5029077;28;20080;-72
2022/09/28 11:11:19;;;;;;;5.80;1.10;;;16.30;99.90;;;;;;5024060;28;20052;-72
2022/09/28 11:13:50;;;;;;;3.00;1.10;;;16.50;99.90;;;;;;5029516;28;20544;-73
2022/09/28 11:16:28;;;;;;;3.63;1.10;;;16.40;99.90;;;;;;5024387;28;20037;-72
2022/09/28 11:18:55;;;;;;;3.25;0.80;;;16.20;99.90;;;;;;5030412;28;20462;-73
2022/09/28 11:21:26;;;;;;;6.72;1.67;;;16.10;99.90;;;;;;5025911;28;20037;-72
2022/09/28 11:24:04;;;;;;;2.05;1.02;;;16.00;99.90;;;;;;5030317;28;20489;-73
2022/09/28 11:26:42;;;;;;;3.70;0.73;;;16.10;99.90;;;;;;5028635;28;20017;-72
2022/09/28 11:29:21;;;;;;;5.35;0.90;;;16.30;99.90;;;;;;5030612;28;20018;-73
2022/09/28 11:31:47;;;;;;;3.05;0.80;;;16.50;99.90;;;;;;5028784;28;20022;-72
2022/09/28 11:34:20;;;;;;;4.15;0.98;;;16.70;99.90;;;;;;5030006;28;20363;-73
2022/09/28 11:36:58;;;;;;;3.72;0.85;;;16.90;99.90;;;;;;5023388;28;20026;-73
2022/09/28 11:39:45;;;;;;;1.50;0.70;;;17.00;99.90;;;;;;5028537;28;20075;-73
2022/09/28 11:42:52;;;;;;;10.30;1.40;;;16.90;99.90;;;;;;5027822;28;20025;-72
2022/09/28 11:45:43;;;;;;;3.42;0.95;;;16.50;99.90;;;;;;5030320;28;20045;-73
2022/09/28 11:48:16;;;;;;;2.22;0.57;;;16.30;99.90;;;;;;5028571;28;20041;-73
2022/09/28 11:50:49;;;;;;;2.13;0.68;;;16.20;99.90;;;;;;5028152;28;20034;-72
2022/09/28 11:53:21;;;;;;;3.03;1.20;;;16.10;99.90;;;;;;5019005;28;20049;-72
2022/09/28 11:56:10;;;;;;;8.73;1.50;;;16.10;99.90;;;;;;5028346;28;20535;-73
2022/09/28 11:58:46;;;;;;;2.88;0.95;;;16.10;99.90;;;;;;5020746;28;20030;-72
2022/09/28 12:01:34;;;;;;;4.93;1.30;;;16.10;99.90;;;;;;5026523;28;20025;-73
2022/09/28 12:04:25;;;;;;;3.88;1.10;;;16.30;99.90;;;;;;5026506;28;20104;-72
2022/09/28 12:07:07;;;;;;;5.85;0.98;;;16.20;99.90;;;;;;5030732;28;20032;-73
2022/09/28 12:10:02;;;;;;;2.50;0.98;;;16.30;99.90;;;;;;5034511;28;20465;-72
2022/09/28 12:12:49;;;;;;;3.95;1.02;;;16.30;99.90;;;;;;5037878;28;20124;-73
2022/09/28 12:15:22;;;;;;;2.38;0.80;;;16.40;99.90;;;;;;5019815;28;20022;-73
2022/09/28 12:18:00;;;;;;;3.17;0.60;;;16.70;99.90;;;;;;5026203;28;20048;-73
2022/09/28 12:20:33;;;;;;;2.33;0.73;;;16.80;99.90;;;;;;5016796;28;20021;-73
2022/09/28 12:22:58;;;;;;;3.60;0.70;;;16.80;99.90;;;;;;5022585;28;20022;-72
2022/09/28 12:25:28;;;;;;;1.05;0.70;;;16.70;99.90;;;;;;5031046;28;20034;-72
2022/09/28 12:28:05;;;;;;;0.95;0.75;;;16.60;99.90;;;;;;5030942;28;20018;-72
2022/09/28 12:30:39;;;;;;;2.50;0.70;;;16.50;99.90;;;;;;5020867;28;20040;-72
2022/09/28 12:33:10;;;;;;;3.13;0.90;;;16.70;99.90;;;;;;5029411;28;20029;-72
2022/09/28 12:36:00;;;;;;;2.40;0.90;;;16.90;99.90;;;;;;5024025;28;20025;-72
2022/09/28 12:39:00;;;;;;;2.38;1.10;;;17.10;99.90;;;;;;5021825;28;20033;-72
2022/09/28 12:42:06;;;;;;;3.28;1.20;;;17.40;99.90;;;;;;5024787;28;20164;-72
2022/09/28 12:44:55;;;;;;;3.55;1.38;;;17.70;99.90;;;;;;5026318;28;20056;-72
2022/09/28 12:47:42;;;;;;;2.78;1.10;;;17.70;99.90;;;;;;5039974;28;20049;-73
2022/09/28 12:50:37;;;;;;;3.47;1.25;;;17.70;99.90;;;;;;5034461;28;20044;-72
2022/09/28 12:53:18;;;;;;;2.85;0.90;;;17.70;99.90;;;;;;5029351;28;20017;-72
2022/09/28 12:56:03;;;;;;;1.70;0.70;;;17.80;99.90;;;;;;5028758;28;20030;-72
2022/09/28 12:58:47;;;;;;;5.03;0.90;;;17.70;99.90;;;;;;5033317;28;20034;-72
2022/09/28 13:01:40;;;;;;;1.58;0.65;;;17.80;99.90;;;;;;5030941;28;20056;-72
2022/09/28 13:04:34;;;;;;;1.83;0.90;;;17.90;99.90;;;;;;5028339;28;20040;-73
2022/09/28 13:07:22;;;;;;;3.30;0.98;;;18.00;99.90;;;;;;5030524;28;20385;-72
2022/09/28 13:10:05;;;;;;;2.40;1.45;;;18.00;99.90;;;;;;5030284;28;20032;-73